Amanda Park, Washington
Current Conditions -  °F | °C
As of 10:53 PM on Tuesday 21 Oct 2014 (Local Time) from KHQM Reporting Station
Light Rain Light Rain  
Wind Chill: 56°   Ceiling: 3300
Heat Index: 56°   Visibility: 4mi
Dew Point: 54°   Wind: 20mph
Humidity: 93%   Direction: 110°ESE
Pressure: 29.7"   Gusts: NA
Location:  47.46°N, 123.89°W
Report Text: KHQM 220553Z AUTO 11017KT 4SM -RA BR FEW025 OVC033 13/12 A2970 RMK AO2 SLP061 P0001 60021 T01330122 10156 20133 56020
Loading
Personal Weather Stations






























Interactive Weather Map
Tropical Storm Tracking
New forecast layout! Learn more

10-Day Weather Forecast

Advertisements
Track Severe Weather on mobile